createdAt,value
2019-04-06T00:00:36.326Z,23.8
2019-04-06T00:01:25.876Z,23.7
2019-04-06T00:02:15.436Z,23.7
2019-04-06T00:03:05.671Z,23.7
2019-04-06T00:03:58.685Z,23.7
2019-04-06T00:04:46.376Z,23.7
2019-04-06T00:05:36.121Z,23.7
2019-04-06T00:06:26.261Z,23.7
2019-04-06T00:07:15.981Z,23.7
2019-04-06T00:08:06.866Z,23.7
2019-04-06T00:08:55.881Z,23.7
2019-04-06T00:09:46.226Z,23.7
2019-04-06T00:10:35.790Z,23.7
2019-04-06T00:11:26.676Z,23.7
2019-04-06T00:12:16.173Z,23.7
2019-04-06T00:13:06.531Z,23.7
2019-04-06T00:13:56.295Z,23.7
2019-04-06T00:14:45.821Z,23.7
2019-04-06T00:15:36.983Z,23.7
2019-04-06T00:16:26.795Z,23.7
2019-04-06T00:17:16.974Z,23.7
2019-04-06T00:18:06.183Z,23.6
2019-04-06T00:18:57.405Z,23.7
2019-04-06T00:19:47.163Z,23.6
2019-04-06T00:20:37.201Z,23.6
2019-04-06T00:21:27.310Z,23.6
2019-04-06T00:22:17.890Z,23.6
2019-04-06T00:23:07.477Z,23.6
2019-04-06T00:23:56.977Z,23.6
2019-04-06T00:24:47.792Z,23.6
2019-04-06T00:25:49.619Z,23.6
2019-04-06T00:26:27.455Z,23.5
2019-04-06T00:27:18.007Z,23.5
2019-04-06T00:28:07.765Z,23.4
2019-04-06T00:28:57.552Z,23.4
2019-04-06T00:29:47.881Z,23.3
2019-04-06T00:30:38.309Z,23.1
2019-04-06T00:31:27.532Z,22.9
2019-04-06T00:32:18.704Z,22.9
2019-04-06T00:33:08.122Z,22.8
2019-04-06T00:33:58.777Z,22.8
2019-04-06T00:34:48.323Z,22.8
2019-04-06T00:35:38.961Z,22.8
2019-04-06T00:36:27.905Z,22.9
2019-04-06T00:37:18.354Z,23
2019-04-06T00:38:08.303Z,23.2
2019-04-06T00:38:58.448Z,23.3
2019-04-06T00:39:48.419Z,23.4
2019-04-06T00:40:53.569Z,23.6
2019-04-06T00:41:28.551Z,23.8
2019-04-06T00:42:18.572Z,23.9
2019-04-06T00:43:08.912Z,24
2019-04-06T00:43:59.484Z,24.1
2019-04-06T00:44:48.958Z,24.3
2019-04-06T00:45:39.381Z,24.4
2019-04-06T00:46:29.416Z,24.5
2019-04-06T00:47:19.214Z,24.5
2019-04-06T00:48:09.454Z,24.4
2019-04-06T00:48:59.518Z,24.4
2019-04-06T00:49:49.007Z,24.3
2019-04-06T00:50:38.848Z,24.3
2019-04-06T00:51:29.755Z,24.1
2019-04-06T00:52:19.813Z,24.1
2019-04-06T00:53:09.983Z,24
2019-04-06T00:54:00.398Z,23.9
2019-04-06T00:54:50.151Z,23.9
2019-04-06T00:55:39.782Z,23.9
2019-04-06T00:56:29.965Z,23.9
2019-04-06T00:57:19.901Z,23.9
2019-04-06T00:58:10.266Z,23.9
2019-04-06T00:59:00.450Z,23.9
2019-04-06T00:59:51.125Z,23.8
2019-04-06T01:00:39.632Z,23.8
2019-04-06T01:01:30.242Z,23.8
2019-04-06T01:02:20.367Z,23.8
2019-04-06T01:03:10.377Z,23.9
2019-04-06T01:04:00.048Z,23.9
2019-04-06T01:04:50.917Z,23.9
2019-04-06T01:05:40.565Z,23.9
2019-04-06T01:06:31.251Z,23.9
2019-04-06T01:07:23.638Z,23.9
2019-04-06T01:08:10.868Z,23.9
2019-04-06T01:09:01.030Z,23.9
2019-04-06T01:09:51.107Z,23.9
2019-04-06T01:10:40.548Z,23.9
2019-04-06T01:11:31.257Z,23.9
2019-04-06T01:12:35.210Z,23.9
2019-04-06T01:13:11.134Z,23.8
2019-04-06T01:14:01.052Z,23.9
2019-04-06T01:14:50.627Z,23.8
2019-04-06T01:15:41.507Z,23.8
2019-04-06T01:16:31.104Z,23.8
2019-04-06T01:17:21.129Z,23.8
2019-04-06T01:18:10.805Z,23.8
2019-04-06T01:19:01.079Z,23.8
2019-04-06T01:19:51.515Z,23.8
2019-04-06T01:20:42.124Z,23.8
2019-04-06T01:21:32.087Z,23.7
2019-04-06T01:22:22.227Z,23.7
2019-04-06T01:23:12.144Z,23.7
2019-04-06T01:24:01.632Z,23.6
2019-04-06T01:24:52.198Z,23.6
2019-04-06T01:25:42.531Z,23.5
2019-04-06T01:26:32.051Z,23.3
2019-04-06T01:27:22.801Z,23.1
2019-04-06T01:28:12.091Z,23
2019-04-06T01:29:01.643Z,22.9
2019-04-06T01:29:51.770Z,22.9
2019-04-06T01:30:40.969Z,22.9
2019-04-06T01:31:32.656Z,22.9
2019-04-06T01:32:22.479Z,23
2019-04-06T01:33:12.911Z,23.1
2019-04-06T01:34:05.204Z,23.3
2019-04-06T01:34:53.089Z,23.4
2019-04-06T01:35:42.919Z,23.5
2019-04-06T01:36:32.996Z,23.7
2019-04-06T01:37:22.771Z,23.9
2019-04-06T01:38:13.285Z,23.9
2019-04-06T01:39:03.662Z,24.1
2019-04-06T01:39:53.602Z,24.3
2019-04-06T01:40:42.653Z,24.3
2019-04-06T01:41:33.398Z,24.4
2019-04-06T01:42:23.228Z,24.6
2019-04-06T01:43:13.503Z,24.6
2019-04-06T01:44:03.771Z,24.6
2019-04-06T01:44:53.373Z,24.5
2019-04-06T01:45:42.588Z,24.4
2019-04-06T01:46:33.117Z,24.4
2019-04-06T01:47:23.357Z,24.3
2019-04-06T01:48:13.573Z,24.2
2019-04-06T01:49:03.302Z,24.1
2019-04-06T01:49:53.186Z,24.1
2019-04-06T01:50:42.918Z,24.1
2019-04-06T01:51:34.377Z,23.9
2019-04-06T01:52:24.500Z,23.9
2019-04-06T01:53:13.681Z,23.9
2019-04-06T01:54:04.176Z,23.9
2019-04-06T01:54:53.980Z,23.9
2019-04-06T01:55:44.247Z,23.9
2019-04-06T01:56:34.601Z,23.9
2019-04-06T01:57:24.436Z,23.9
2019-04-06T01:58:13.725Z,23.9
2019-04-06T01:59:05.237Z,23.9
2019-04-06T01:59:54.129Z,23.9
2019-04-06T02:00:44.092Z,23.9
2019-04-06T02:01:34.972Z,23.9
2019-04-06T02:02:24.989Z,23.9
2019-04-06T02:03:14.177Z,23.9
2019-04-06T02:04:05.636Z,23.9
2019-04-06T02:04:55.061Z,23.9
2019-04-06T02:05:44.604Z,23.9
2019-04-06T02:06:35.277Z,23.9
2019-04-06T02:07:25.467Z,23.9
2019-04-06T02:08:14.830Z,23.9
2019-04-06T02:09:05.412Z,23.9
2019-04-06T02:09:55.603Z,23.9
2019-04-06T02:10:45.561Z,23.9
2019-04-06T02:11:35.576Z,23.9
2019-04-06T02:12:24.748Z,23.9
2019-04-06T02:13:15.910Z,23.8
2019-04-06T02:14:05.886Z,23.8
2019-04-06T02:14:55.603Z,23.8
2019-04-06T02:15:44.764Z,23.8
2019-04-06T02:16:35.726Z,23.8
2019-04-06T02:17:25.974Z,23.8
2019-04-06T02:18:15.406Z,23.7
2019-04-06T02:19:06.894Z,23.7
2019-04-06T02:19:56.304Z,23.7
2019-04-06T02:21:01.411Z,23.6
2019-04-06T02:21:36.095Z,23.4
2019-04-06T02:22:26.208Z,23.3
2019-04-06T02:23:16.186Z,23.1
2019-04-06T02:24:06.506Z,23.1
2019-04-06T02:24:55.983Z,23
2019-04-06T02:25:46.053Z,23
2019-04-06T02:26:38.910Z,23
2019-04-06T02:27:26.422Z,23.1
2019-04-06T02:28:16.894Z,23.1
2019-04-06T02:29:07.410Z,23.3
2019-04-06T02:29:56.918Z,23.4
2019-04-06T02:30:47.181Z,23.5
2019-04-06T02:31:36.993Z,23.6
2019-04-06T02:32:27.940Z,23.8
2019-04-06T02:33:21.397Z,23.9
2019-04-06T02:34:06.756Z,24.1
2019-04-06T02:34:57.473Z,24.2
2019-04-06T02:35:46.921Z,24.3
2019-04-06T02:36:38.147Z,24.4
2019-04-06T02:37:28.185Z,24.5
2019-04-06T02:38:16.670Z,24.6
2019-04-06T02:39:07.477Z,24.7
2019-04-06T02:39:58.131Z,24.7
2019-04-06T02:40:48.706Z,24.6
2019-04-06T02:41:36.929Z,24.6
2019-04-06T02:42:28.606Z,24.4
2019-04-06T02:43:18.675Z,24.3
2019-04-06T02:44:07.793Z,24.3
2019-04-06T02:44:58.536Z,24.2
2019-04-06T02:45:48.182Z,24.1
2019-04-06T02:46:38.706Z,24.1
2019-04-06T02:47:28.190Z,24.1
2019-04-06T02:48:19.162Z,24
2019-04-06T02:49:09.052Z,24
2019-04-06T02:49:58.937Z,24
2019-04-06T02:50:48.800Z,23.9
2019-04-06T02:51:39.054Z,23.9
2019-04-06T02:52:29.208Z,23.9
2019-04-06T02:53:18.736Z,23.9
2019-04-06T02:54:09.063Z,23.9
2019-04-06T02:54:59.136Z,23.9
2019-04-06T02:55:49.357Z,23.9
2019-04-06T02:56:54.667Z,23.9
2019-04-06T02:57:29.391Z,23.9
2019-04-06T02:58:19.431Z,23.9
2019-04-06T02:59:09.114Z,23.9
2019-04-06T02:59:59.393Z,23.9
2019-04-06T03:00:49.267Z,24
2019-04-06T03:01:53.938Z,23.9
2019-04-06T03:02:29.938Z,23.9
2019-04-06T03:03:20.019Z,23.9
2019-04-06T03:04:10.115Z,23.9
2019-04-06T03:07:29.538Z,23.9
2019-04-06T03:08:19.644Z,23.9
2019-04-06T03:08:55.164Z,23.9
2019-04-06T03:09:45.483Z,23.8
2019-04-06T03:10:35.948Z,23.8
2019-04-06T03:11:26.385Z,23.8
2019-04-06T03:12:15.224Z,23.8
2019-04-06T03:13:05.266Z,23.8
2019-04-06T03:13:55.964Z,23.8
2019-04-06T03:14:49.178Z,23.8
2019-04-06T03:15:35.695Z,23.7
2019-04-06T03:16:25.449Z,23.7
2019-04-06T03:17:15.715Z,23.6
2019-04-06T03:18:06.192Z,23.4
2019-04-06T03:18:56.748Z,23.3
2019-04-06T03:19:46.311Z,23.2
2019-04-06T03:20:36.456Z,23.1
2019-04-06T03:21:25.329Z,23.1
2019-04-06T03:22:16.278Z,23.1
2019-04-06T03:23:06.036Z,23.1
2019-04-06T03:24:00.720Z,23.2
2019-04-06T03:24:46.661Z,23.3
2019-04-06T03:25:37.152Z,23.3
2019-04-06T03:26:26.875Z,23.5
2019-04-06T03:27:16.380Z,23.6
2019-04-06T03:28:06.439Z,23.8
2019-04-06T03:28:57.238Z,23.9
2019-04-06T03:30:04.805Z,24
2019-04-06T03:30:38.841Z,24.2
2019-04-06T03:31:36.675Z,24.3
2019-04-06T03:32:17.874Z,24.4
2019-04-06T03:33:07.851Z,24.5
2019-04-06T03:33:59.132Z,24.6
2019-04-06T03:34:48.699Z,24.7
2019-04-06T03:35:38.299Z,24.6
2019-04-06T03:36:27.181Z,24.5
2019-04-06T03:37:16.963Z,24.4
2019-04-06T03:38:08.208Z,24.4
2019-04-06T03:38:57.365Z,24.3
2019-04-06T03:39:47.442Z,24.2
2019-04-06T03:40:37.595Z,24.2
2019-04-06T03:41:27.490Z,24.1
2019-04-06T03:42:18.776Z,24.1
2019-04-06T03:43:08.222Z,24.1
2019-04-06T03:43:58.513Z,23.9
2019-04-06T03:44:46.889Z,23.8
2019-04-06T03:45:37.747Z,23.7
2019-04-06T03:46:28.195Z,23.6
2019-04-06T03:47:18.308Z,23.6
2019-04-06T03:48:08.138Z,23.5
2019-04-06T03:48:57.433Z,23.5
2019-04-06T03:49:47.884Z,23.4
2019-04-06T03:50:37.776Z,23.4
2019-04-06T03:51:28.593Z,23.4
2019-04-06T03:52:18.366Z,23.4
2019-04-06T03:53:07.890Z,23.4
2019-04-06T03:53:58.808Z,23.3
2019-04-06T03:54:48.308Z,23.3
2019-04-06T03:55:38.092Z,23.3
2019-04-06T03:56:29.211Z,23.2
2019-04-06T03:57:24.721Z,23.2
2019-04-06T03:58:09.551Z,23.1
2019-04-06T03:59:00.335Z,23.1
2019-04-06T03:59:49.164Z,23.1
2019-04-06T04:00:40.215Z,23
2019-04-06T04:01:29.704Z,22.9
2019-04-06T04:02:19.319Z,23
2019-04-06T04:03:09.750Z,22.9
2019-04-06T04:03:59.166Z,22.9
2019-04-06T04:04:49.696Z,22.9
2019-04-06T04:05:40.326Z,22.9
2019-04-06T04:06:29.049Z,22.9
2019-04-06T04:07:20.570Z,22.9
2019-04-06T04:08:08.931Z,22.8
2019-04-06T04:08:59.687Z,22.8
2019-04-06T04:09:50.549Z,22.9
2019-04-06T04:10:39.666Z,22.9
2019-04-06T04:11:30.883Z,23
2019-04-06T04:12:19.754Z,23
2019-04-06T04:13:09.908Z,23.1
2019-04-06T04:14:00.321Z,23.1
2019-04-06T04:14:49.616Z,23.1
2019-04-06T04:15:40.884Z,23.2
2019-04-06T04:16:30.919Z,23.3
2019-04-06T04:17:20.535Z,23.4
2019-04-06T04:18:11.048Z,23.5
2019-04-06T04:19:00.119Z,23.7
2019-04-06T04:19:50.092Z,23.8
2019-04-06T04:20:40.165Z,23.9
2019-04-06T04:21:30.793Z,24.1
2019-04-06T04:22:21.109Z,24.2
2019-04-06T04:23:11.391Z,24.3
2019-04-06T04:24:00.860Z,24.4
2019-04-06T04:24:50.471Z,24.6
2019-04-06T04:25:41.523Z,24.7
2019-04-06T04:26:31.393Z,24.7
2019-04-06T04:27:38.084Z,24.6
2019-04-06T04:28:11.239Z,24.6
2019-04-06T04:29:01.967Z,24.5
2019-04-06T04:29:51.714Z,24.4
2019-04-06T04:30:42.476Z,24.4
2019-04-06T04:31:31.950Z,24.3
2019-04-06T04:32:21.869Z,24.2
2019-04-06T04:33:10.781Z,24.2
2019-04-06T04:34:01.792Z,24.1
2019-04-06T04:34:51.504Z,24.1
2019-04-06T04:35:41.538Z,23.9
2019-04-06T04:36:32.539Z,23.8
2019-04-06T04:37:22.193Z,23.8
2019-04-06T04:38:12.168Z,23.8
2019-04-06T04:39:01.351Z,23.7
2019-04-06T04:39:52.766Z,23.6
2019-04-06T04:40:42.099Z,23.6
2019-04-06T04:41:32.357Z,23.5
2019-04-06T04:42:22.395Z,23.6
2019-04-06T04:43:12.223Z,23.5
2019-04-06T04:44:02.981Z,23.5
2019-04-06T04:44:52.940Z,23.4
2019-04-06T04:45:41.677Z,23.4
2019-04-06T04:46:33.040Z,23.4
2019-04-06T04:47:22.683Z,23.3
2019-04-06T04:48:11.699Z,23.3
2019-04-06T04:49:02.444Z,23.3
2019-04-06T04:49:53.510Z,23.2
2019-04-06T04:50:42.454Z,23.2
2019-04-06T04:51:32.556Z,23.1
2019-04-06T04:52:23.166Z,23.1
2019-04-06T04:53:12.444Z,23.1
2019-04-06T04:54:03.222Z,23.1
2019-04-06T04:54:52.125Z,23
2019-04-06T04:55:43.017Z,23
2019-04-06T04:56:32.693Z,23
2019-04-06T04:57:23.570Z,23
2019-04-06T04:58:12.993Z,23
2019-04-06T04:59:03.298Z,22.9
2019-04-06T04:59:52.911Z,22.9
2019-04-06T05:00:43.795Z,22.9
2019-04-06T05:01:33.842Z,22.8
2019-04-06T05:02:23.995Z,22.8
2019-04-06T05:03:14.148Z,22.8
2019-04-06T05:04:03.605Z,22.8
2019-04-06T05:04:54.481Z,22.7
2019-04-06T05:05:44.084Z,22.6
2019-04-06T05:06:33.766Z,22.8
2019-04-06T05:07:23.444Z,22.8
2019-04-06T05:08:13.744Z,22.9
2019-04-06T05:09:04.599Z,22.9
2019-04-06T05:09:54.052Z,23
2019-04-06T05:10:43.669Z,23
2019-04-06T05:11:34.606Z,23
2019-04-06T05:12:23.909Z,23.1
2019-04-06T05:13:14.645Z,23.1
2019-04-06T05:14:03.385Z,23.2
2019-04-06T05:14:54.199Z,23.3
2019-04-06T05:15:44.094Z,23.4
2019-04-06T05:16:34.428Z,23.6
2019-04-06T05:17:24.569Z,23.8
2019-04-06T05:18:13.926Z,23.9
2019-04-06T05:19:05.186Z,24
2019-04-06T05:19:54.549Z,24.1
2019-04-06T05:20:44.521Z,24.2
2019-04-06T05:21:34.896Z,24.3
2019-04-06T05:22:24.702Z,24.4
2019-04-06T05:23:13.883Z,24.6
2019-04-06T05:24:03.683Z,24.6
2019-04-06T05:24:54.995Z,24.6
2019-04-06T05:25:44.679Z,24.6
2019-04-06T05:26:45.233Z,24.5
2019-04-06T05:27:24.758Z,24.4
2019-04-06T05:28:14.448Z,24.3
2019-04-06T05:29:05.682Z,24.3
2019-04-06T05:29:54.731Z,24.1
2019-04-06T06:05:33.768Z,23.9
2019-04-06T06:06:06.540Z,24.1
2019-04-06T06:06:54.803Z,24.2
2019-04-06T06:07:45.670Z,24.3
2019-04-06T06:08:38.020Z,24.4
2019-04-06T06:09:25.143Z,24.5
2019-04-06T06:10:14.851Z,24.6
2019-04-06T06:11:05.588Z,24.6
2019-04-06T06:11:57.277Z,24.4
2019-04-06T06:12:45.678Z,24.3
2019-04-06T06:13:36.075Z,24.3
2019-04-06T06:14:25.978Z,24.1
2019-04-06T06:15:15.601Z,24.1
2019-04-06T06:16:05.891Z,24
2019-04-06T06:16:56.263Z,23.9
2019-04-06T06:17:45.296Z,23.9
2019-04-06T06:18:36.012Z,23.9
2019-04-06T06:19:25.878Z,23.9
2019-04-06T06:20:16.222Z,23.8
2019-04-06T06:21:06.752Z,23.8
2019-04-06T06:21:56.660Z,23.8
2019-04-06T06:22:46.782Z,23.8
2019-04-06T06:23:36.850Z,23.8
2019-04-06T06:24:26.757Z,23.8
2019-04-06T06:25:17.567Z,23.8
2019-04-06T06:26:07.619Z,23.9
2019-04-06T06:26:56.133Z,23.9
2019-04-06T06:27:47.257Z,23.9
2019-04-06T06:28:37.574Z,23.9
2019-04-06T06:29:26.855Z,23.9
2019-04-06T06:30:17.075Z,23.9
2019-04-06T06:31:07.107Z,23.9
2019-04-06T06:31:57.587Z,23.9
2019-04-06T06:32:47.615Z,23.9
2019-04-06T06:33:37.522Z,23.9
2019-04-06T06:34:27.301Z,23.9
2019-04-06T06:35:17.671Z,23.9
2019-04-06T06:36:06.472Z,23.9
2019-04-06T06:36:57.751Z,23.8
2019-04-06T06:37:47.774Z,23.9
2019-04-06T06:38:40.871Z,23.8
2019-04-06T06:39:27.992Z,23.8
2019-04-06T06:40:17.281Z,23.8
2019-04-06T06:41:06.949Z,23.8
2019-04-06T06:41:57.781Z,23.8
2019-04-06T06:42:47.673Z,23.8
2019-04-06T06:43:37.887Z,23.7
2019-04-06T06:44:27.958Z,23.7
2019-04-06T06:45:16.859Z,23.7
2019-04-06T06:46:08.433Z,23.6
2019-04-06T06:46:57.141Z,23.4
2019-04-06T06:47:47.587Z,23.3
2019-04-06T06:48:38.711Z,23.3
2019-04-06T06:49:27.298Z,23.2
2019-04-06T06:50:19.049Z,23.2
2019-04-06T06:51:08.228Z,23.2
2019-04-06T06:51:58.380Z,23.3
2019-04-06T06:52:48.241Z,23.3
2019-04-06T06:53:38.235Z,23.4
2019-04-06T06:54:29.076Z,23.5
2019-04-06T06:55:18.409Z,23.6
2019-04-06T06:56:08.223Z,23.8
2019-04-06T06:56:58.348Z,23.9
2019-04-06T06:57:48.395Z,24
2019-04-06T06:58:38.478Z,24.2
2019-04-06T06:59:28.915Z,24.3
2019-04-06T07:00:18.139Z,24.4
2019-04-06T07:01:10.763Z,24.4
2019-04-06T07:01:58.430Z,24.4
2019-04-06T07:02:48.361Z,24.4
2019-04-06T07:05:14.564Z,24.3
2019-04-06T07:06:05.510Z,24.2
2019-04-06T07:06:55.742Z,24.1
2019-04-06T07:07:44.898Z,24
2019-04-06T07:08:34.947Z,23.9
2019-04-06T07:09:25.813Z,23.8
2019-04-06T07:10:16.182Z,23.8
2019-04-06T07:11:06.141Z,23.8
2019-04-06T07:11:55.090Z,23.7
2019-04-06T07:12:46.234Z,23.6
2019-04-06T07:13:36.131Z,23.6
2019-04-06T07:14:25.425Z,23.6
2019-04-06T07:15:16.365Z,23.6
2019-04-06T07:16:05.757Z,23.5
2019-04-06T07:16:56.215Z,23.4
2019-04-06T07:17:44.926Z,23.4
2019-04-06T07:18:36.380Z,23.4
2019-04-06T07:19:26.654Z,23.4
2019-04-06T07:20:16.154Z,23.4
2019-04-06T07:21:06.385Z,23.4
2019-04-06T07:21:56.473Z,23.4
2019-04-06T07:22:45.883Z,23.4
2019-04-06T07:23:36.657Z,23.3
2019-04-06T07:24:25.720Z,23.3
2019-04-06T07:25:15.775Z,23.3
2019-04-06T07:26:06.872Z,23.3
2019-04-06T07:26:56.487Z,23.3
2019-04-06T07:27:46.425Z,23.3
2019-04-06T07:28:47.332Z,23.3
2019-04-06T07:29:26.494Z,23.3
2019-04-06T07:30:16.999Z,23.2
2019-04-06T07:31:07.232Z,23.2
2019-04-06T07:31:56.581Z,23.2
2019-04-06T07:32:46.817Z,23.2
2019-04-06T07:33:36.867Z,23.2
2019-04-06T07:34:27.620Z,23.1
2019-04-06T07:35:15.937Z,23.1
2019-04-06T07:36:07.217Z,23.1
2019-04-06T07:36:58.188Z,23.1
2019-04-06T07:37:47.609Z,23.1
2019-04-06T07:38:40.343Z,23.1
2019-04-06T07:39:27.634Z,23.1
2019-04-06T07:40:17.096Z,23.1
2019-04-06T07:41:08.046Z,23
2019-04-06T07:41:57.835Z,23
2019-04-06T07:42:47.921Z,23.1
2019-04-06T07:43:37.542Z,23
2019-04-06T07:44:28.061Z,22.9
2019-04-06T07:45:17.797Z,22.9
2019-04-06T07:46:07.899Z,22.9
2019-04-06T07:46:56.744Z,22.9
2019-04-06T07:47:48.080Z,22.9
2019-04-06T07:48:38.584Z,22.9
2019-04-06T07:49:28.231Z,22.9
2019-04-06T07:50:18.057Z,22.9
2019-04-06T07:51:07.501Z,22.9
2019-04-06T07:51:58.541Z,22.8
2019-04-06T07:52:48.026Z,22.8
2019-04-06T07:53:37.618Z,22.8
2019-04-06T07:54:28.134Z,22.8
2019-04-06T07:55:18.337Z,22.8
2019-04-06T07:56:08.168Z,22.8
2019-04-06T07:56:58.396Z,22.7
2019-04-06T07:57:48.538Z,22.7
2019-04-06T07:58:52.069Z,22.7
2019-04-06T07:59:28.489Z,22.6
2019-04-06T08:00:18.766Z,22.6
2019-04-06T08:01:09.366Z,22.6
2019-04-06T08:01:58.483Z,22.6
2019-04-06T08:02:48.788Z,22.6
2019-04-06T08:03:39.656Z,22.6
2019-04-06T08:04:29.231Z,22.6
2019-04-06T08:05:18.700Z,22.5
2019-04-06T08:06:09.343Z,22.5
2019-04-06T08:07:00.465Z,22.5
2019-04-06T08:07:49.248Z,22.5
2019-04-06T08:08:39.373Z,22.4
2019-04-06T08:09:29.528Z,22.4
2019-04-06T08:10:19.672Z,22.4
2019-04-06T08:11:10.147Z,22.4
2019-04-06T08:12:00.149Z,22.4
2019-04-06T08:12:50.058Z,22.4
2019-04-06T08:13:40.245Z,22.3
2019-04-06T08:14:29.309Z,22.3
2019-04-06T08:15:19.934Z,22.3
2019-04-06T08:16:10.858Z,22.3
2019-04-06T08:16:59.707Z,22.3
2019-04-06T08:17:49.497Z,22.3
2019-04-06T08:18:40.924Z,22.2
2019-04-06T08:19:29.772Z,22.3
2019-04-06T08:20:20.603Z,22.2
2019-04-06T08:21:10.507Z,22.2
2019-04-06T08:22:00.757Z,22.1
2019-04-06T08:22:51.244Z,22.1
2019-04-06T08:23:39.864Z,22.1
2019-04-06T08:24:31.661Z,22.1
2019-04-06T08:25:20.490Z,22.1
2019-04-06T08:26:11.741Z,22.1
2019-04-06T08:27:01.366Z,22
2019-04-06T08:27:50.611Z,22
2019-04-06T08:28:41.176Z,22
2019-04-06T08:29:30.872Z,22
2019-04-06T08:30:21.376Z,21.9
2019-04-06T08:31:11.003Z,21.9
2019-04-06T08:32:01.146Z,21.9
2019-04-06T08:32:51.313Z,21.9
2019-04-06T08:33:40.360Z,21.9
2019-04-06T08:34:30.846Z,21.9
2019-04-06T08:35:34.186Z,21.9
2019-04-06T08:36:11.606Z,21.8
2019-04-06T08:37:01.662Z,21.8
2019-04-06T08:37:51.464Z,21.8
2019-04-06T08:38:41.015Z,21.8
2019-04-06T08:39:33.843Z,21.8
2019-04-06T08:40:21.353Z,21.8
2019-04-06T08:41:11.810Z,21.8
2019-04-06T08:42:01.963Z,21.8
2019-04-06T08:42:51.543Z,21.8
2019-04-06T08:43:41.075Z,21.7
2019-04-06T08:44:32.778Z,21.7
2019-04-06T08:45:22.538Z,21.7
2019-04-06T08:46:11.686Z,21.7
2019-04-06T08:47:02.303Z,21.6
2019-04-06T08:47:52.231Z,21.6
2019-04-06T08:48:42.578Z,21.6
2019-04-06T08:49:32.286Z,21.6
2019-04-06T08:50:23.090Z,21.6
2019-04-06T08:51:12.797Z,21.6
2019-04-06T08:52:03.625Z,21.6
2019-04-06T08:52:53.283Z,21.6
2019-04-06T08:53:43.023Z,21.6
2019-04-06T08:54:33.508Z,21.5
2019-04-06T08:55:23.325Z,21.5
2019-04-06T08:56:13.241Z,21.5
2019-04-06T08:57:03.545Z,21.5
2019-04-06T08:57:53.530Z,21.4
2019-04-06T08:58:43.953Z,21.4
2019-04-06T08:59:34.080Z,21.4
2019-04-06T09:00:23.975Z,21.4
2019-04-06T09:01:13.892Z,21.4
2019-04-06T09:02:03.675Z,21.4
2019-04-06T09:02:53.467Z,21.4
2019-04-06T09:03:43.535Z,21.4
2019-04-06T09:04:33.672Z,21.4
2019-04-06T09:05:24.058Z,21.4
2019-04-06T09:06:13.000Z,21.4
2019-04-06T09:07:04.049Z,21.3
2019-04-06T09:07:53.952Z,21.3
2019-04-06T09:08:43.674Z,21.3
2019-04-06T09:09:34.799Z,21.3
2019-04-06T09:10:23.601Z,21.3
2019-04-06T09:11:13.471Z,21.3
2019-04-06T09:12:04.526Z,21.3
2019-04-06T09:12:54.453Z,21.2
2019-04-06T09:13:47.321Z,21.3
2019-04-06T09:14:33.956Z,21.3
2019-04-06T09:15:24.732Z,21.2
2019-04-06T09:16:14.614Z,21.2
2019-04-06T09:17:03.889Z,21.2
2019-04-06T09:17:55.201Z,21.2
2019-04-06T09:18:45.886Z,21.2
2019-04-06T09:23:45.468Z,21.1
2019-04-06T09:24:35.991Z,21.1
2019-04-06T09:25:24.969Z,21.1
2019-04-06T09:26:15.209Z,21.1
2019-04-06T09:27:05.606Z,21.1
2019-04-06T09:27:55.530Z,21
2019-04-06T09:28:44.539Z,21
2019-04-06T09:29:34.358Z,21.1
2019-04-06T09:30:25.823Z,21
2019-04-06T09:31:15.470Z,21
2019-04-06T09:32:04.776Z,21
2019-04-06T09:32:55.994Z,21
2019-04-06T09:33:45.413Z,21
2019-04-06T09:34:39.553Z,20.9
2019-04-06T09:35:26.022Z,20.9
2019-04-06T09:36:16.081Z,20.9
2019-04-06T09:37:06.635Z,20.9
2019-04-06T09:38:46.223Z,20.9
2019-04-06T09:39:37.272Z,20.9
2019-04-06T09:40:29.003Z,20.9
2019-04-06T09:41:17.088Z,20.9
2019-04-06T09:42:06.810Z,20.9
2019-04-06T09:42:56.665Z,20.9
2019-04-06T09:43:45.637Z,20.9
2019-04-06T09:44:36.960Z,20.9
2019-04-06T09:45:27.325Z,20.9
2019-04-06T09:46:16.401Z,20.9
2019-04-06T09:47:07.316Z,20.9
2019-04-06T09:47:57.253Z,20.8
2019-04-06T09:48:46.469Z,20.9
2019-04-06T09:49:37.234Z,20.8
2019-04-06T09:50:27.314Z,20.8
2019-04-06T09:51:17.034Z,20.8
2019-04-06T09:52:06.292Z,20.8
2019-04-06T09:52:57.052Z,20.8
2019-04-06T09:53:47.472Z,20.8
2019-04-06T09:54:37.645Z,20.8
2019-04-06T09:55:27.972Z,20.8
2019-04-06T09:56:17.192Z,20.8
2019-04-06T09:57:08.264Z,20.8
2019-04-06T09:57:57.986Z,20.8
2019-04-06T09:58:48.024Z,20.8
2019-04-06T09:59:47.929Z,20.8
2019-04-06T10:00:27.749Z,20.7
2019-04-06T10:01:16.954Z,20.8
2019-04-06T10:02:08.349Z,20.7
2019-04-06T10:02:58.192Z,20.7
2019-04-06T10:03:48.246Z,20.7
2019-04-06T10:06:18.904Z,20.7
2019-04-06T10:07:04.776Z,20.7
2019-04-06T10:07:55.331Z,20.7
2019-04-06T10:08:45.719Z,20.7
2019-04-06T10:09:35.860Z,20.6
2019-04-06T10:10:25.331Z,20.6
2019-04-06T10:11:15.231Z,20.6
2019-04-06T10:12:09.559Z,20.6
2019-04-06T10:12:55.553Z,20.6
2019-04-06T10:13:45.673Z,20.6
2019-04-06T10:14:36.339Z,20.6
2019-04-06T10:15:25.973Z,20.6
2019-04-06T10:16:16.315Z,20.6
2019-04-06T10:17:06.803Z,20.6
2019-04-06T10:17:56.722Z,20.6
2019-04-06T10:18:46.702Z,20.6
2019-04-06T10:19:36.031Z,20.6
2019-04-06T10:20:27.044Z,20.6
2019-04-06T10:21:16.342Z,20.6
2019-04-06T10:22:06.680Z,20.6
2019-04-06T10:22:55.960Z,20.6
2019-04-06T10:23:46.857Z,20.5
2019-04-06T10:24:36.905Z,20.6
2019-04-06T10:25:27.482Z,20.6
2019-04-06T10:26:16.799Z,20.6
2019-04-06T10:27:06.910Z,20.5
2019-04-06T10:27:57.267Z,20.5
2019-04-06T10:28:46.985Z,20.5
2019-04-06T10:29:52.297Z,20.5
2019-04-06T10:30:27.335Z,20.5
2019-04-06T10:31:16.936Z,20.5
2019-04-06T10:32:07.080Z,20.5
2019-04-06T10:32:57.628Z,20.5
2019-04-06T10:33:47.268Z,20.4
2019-04-06T10:34:37.102Z,20.4
2019-04-06T10:35:27.894Z,20.4
2019-04-06T10:36:17.089Z,20.4
2019-04-06T10:37:07.952Z,20.4
2019-04-06T10:37:57.457Z,20.4
2019-04-06T10:38:46.677Z,20.4
2019-04-06T10:39:38.219Z,20.4
2019-04-06T10:40:28.377Z,20.4
2019-04-06T10:41:18.392Z,20.4
2019-04-06T10:42:08.209Z,20.4
2019-04-06T10:42:57.872Z,20.4
2019-04-06T10:43:47.461Z,20.4
2019-04-06T10:44:37.943Z,20.4
2019-04-06T10:45:28.539Z,20.4
2019-04-06T10:46:18.099Z,20.4
2019-04-06T10:47:08.474Z,20.4
2019-04-06T10:47:59.027Z,20.4
2019-04-06T10:48:48.144Z,20.4
2019-04-06T10:49:38.740Z,20.4
2019-04-06T10:50:28.414Z,20.4
2019-04-06T10:51:17.533Z,20.4
2019-04-06T10:52:08.714Z,20.4
2019-04-06T10:52:58.361Z,20.4
2019-04-06T10:53:49.029Z,20.4
2019-04-06T10:54:38.879Z,20.3
2019-04-06T10:55:28.650Z,20.3
2019-04-06T10:56:18.599Z,20.3
2019-04-06T10:57:08.788Z,20.3
2019-04-06T10:57:59.148Z,20.3
2019-04-06T10:58:49.571Z,20.3
2019-04-06T10:59:39.739Z,20.3
2019-04-06T11:00:29.346Z,20.3
2019-04-06T11:01:18.975Z,20.3
2019-04-06T11:02:08.472Z,20.3
2019-04-06T11:02:59.293Z,20.3
2019-04-06T11:03:50.122Z,20.3
2019-04-06T11:04:40.213Z,20.3
2019-04-06T11:05:30.229Z,20.3
2019-04-06T11:06:19.521Z,20.3
2019-04-06T11:07:09.783Z,20.3
2019-04-06T11:08:00.007Z,20.3
2019-04-06T11:08:49.756Z,20.3
2019-04-06T11:09:40.375Z,20.3
2019-04-06T11:10:29.545Z,20.3
2019-04-06T11:11:26.046Z,20.3
2019-04-06T11:12:09.536Z,20.3
2019-04-06T11:13:00.762Z,20.3
2019-04-06T11:13:49.665Z,20.3
2019-04-06T11:14:39.386Z,20.3
2019-04-06T11:15:30.117Z,20.3
2019-04-06T11:16:21.218Z,20.3
2019-04-06T11:17:10.464Z,20.3
2019-04-06T11:18:01.156Z,20.3
2019-04-06T11:18:49.682Z,20.3
2019-04-06T11:19:40.709Z,20.3
2019-04-06T11:20:31.472Z,20.3
2019-04-06T11:21:21.363Z,20.3
2019-04-06T11:22:10.669Z,20.2
2019-04-06T11:23:01.849Z,20.2
2019-04-06T11:23:51.519Z,20.3
2019-04-06T11:24:40.584Z,20.2
2019-04-06T11:25:30.281Z,20.2
2019-04-06T11:26:19.790Z,20.2
2019-04-06T11:27:11.090Z,20.2
2019-04-06T11:28:00.474Z,20.2
2019-04-06T11:28:50.740Z,20.2
2019-04-06T11:29:42.369Z,20.2
2019-04-06T11:30:31.986Z,20.2
2019-04-06T11:31:21.633Z,20.2
2019-04-06T11:32:12.516Z,20.2
2019-04-06T11:33:00.764Z,20.2
2019-04-06T11:33:51.338Z,20.2
2019-04-06T11:34:41.973Z,20.1
2019-04-06T11:35:31.650Z,20.1
2019-04-06T11:36:21.407Z,20.2
2019-04-06T11:37:10.916Z,20.1
2019-04-06T11:38:02.033Z,20.2
2019-04-06T11:38:52.203Z,20.1
2019-04-06T11:39:41.033Z,20.1
2019-04-06T11:40:31.546Z,20.2
2019-04-06T11:41:22.938Z,20.1
2019-04-06T11:42:12.533Z,20.1
2019-04-06T11:43:01.990Z,20.1
2019-04-06T11:43:53.156Z,20.1
2019-04-06T11:44:42.103Z,20.1
2019-04-06T11:45:31.591Z,20.1
2019-04-06T11:46:22.510Z,20.1
2019-04-06T11:47:12.483Z,20.1
2019-04-06T11:48:01.694Z,20.1
2019-04-06T11:48:54.392Z,20.1
2019-04-06T11:49:42.530Z,20.1
2019-04-06T11:50:32.405Z,20.1
2019-04-06T11:51:22.568Z,20.1
2019-04-06T11:52:13.586Z,20.1
2019-04-06T11:53:01.586Z,20.1
2019-04-06T11:53:52.600Z,20.1